createdAt,value
2018-06-25T00:00:02.345Z,13.7
2018-06-25T00:15:02.647Z,13.6
2018-06-25T00:30:03.087Z,13.6
2018-06-25T00:45:02.387Z,13.4
2018-06-25T01:00:02.694Z,13.3
2018-06-25T01:15:03.008Z,13.3
2018-06-25T01:30:02.401Z,13.4
2018-06-25T01:45:02.692Z,13.3
2018-06-25T02:00:02.981Z,13.1
2018-06-25T02:15:02.303Z,13.2
2018-06-25T02:30:02.693Z,13.4
2018-06-25T02:45:02.987Z,13.1
2018-06-25T03:00:02.477Z,12.7
2018-06-25T03:15:02.783Z,12.4
2018-06-25T03:30:03.204Z,11.9
2018-06-25T03:45:02.481Z,11.8
2018-06-25T04:00:02.796Z,12
2018-06-25T04:15:03.104Z,12.2
2018-06-25T04:30:02.472Z,12.1
2018-06-25T04:45:02.776Z,12
2018-06-25T05:00:03.099Z,12.5
2018-06-25T05:15:02.438Z,12.6
2018-06-25T05:30:02.848Z,12.6
2018-06-25T05:45:03.200Z,12.9
2018-06-25T06:00:02.586Z,12.7
2018-06-25T06:15:02.899Z,12.7
2018-06-25T06:30:02.357Z,12.8
2018-06-25T06:45:02.695Z,13.2
2018-06-25T07:00:03.044Z,13.1
2018-06-25T07:15:02.364Z,13.5
2018-06-25T07:30:02.783Z,13.6
2018-06-25T07:45:03.104Z,14.2
2018-06-25T08:00:02.438Z,13.9
2018-06-25T08:15:02.757Z,14.6
2018-06-25T08:30:03.274Z,14.8
2018-06-25T08:45:02.761Z,15.4
2018-06-25T09:00:03.213Z,15.1
2018-06-25T09:15:02.535Z,15.3
2018-06-25T09:30:03.153Z,16.2
2018-06-25T09:45:02.613Z,15.3
2018-06-25T10:00:03.033Z,15.5
2018-06-25T10:15:02.357Z,15.9
2018-06-25T10:30:02.762Z,16.2
2018-06-25T10:45:03.171Z,16.3
2018-06-25T11:00:02.722Z,16.7
2018-06-25T11:15:03.231Z,17.5
2018-06-25T11:30:02.631Z,17.1
2018-06-25T11:45:02.969Z,17.9
2018-06-25T12:00:02.320Z,18.1
2018-06-25T12:15:02.661Z,18.6
2018-06-25T12:30:03.149Z,19.6
2018-06-25T12:45:02.491Z,20.4
2018-06-25T13:00:02.780Z,18.5
2018-06-25T13:15:03.179Z,19.9
2018-06-25T13:30:02.651Z,19.2
2018-06-25T13:45:02.987Z,19.8
2018-06-25T14:00:02.271Z,19.5
2018-06-25T14:15:02.600Z,20.1
2018-06-25T14:30:03.003Z,20.1
2018-06-25T14:45:02.325Z,20.1
2018-06-25T15:00:02.675Z,20.4
2018-06-25T15:15:02.963Z,20.5
2018-06-25T15:30:02.397Z,19.8
2018-06-25T15:45:02.737Z,19.4
2018-06-25T16:00:03.152Z,19.6
2018-06-25T16:15:02.473Z,19.3
2018-06-25T16:30:02.868Z,19.1
2018-06-25T16:45:03.218Z,19.1
2018-06-25T17:00:02.527Z,19
2018-06-25T17:15:02.854Z,19
2018-06-25T17:30:03.300Z,18.6
2018-06-25T17:45:02.680Z,18.4
2018-06-25T18:00:02.982Z,18.2
2018-06-25T18:15:02.327Z,18.2
2018-06-25T18:30:02.736Z,18.1
2018-06-25T18:45:03.087Z,17.8
2018-06-25T19:00:02.442Z,17.7
2018-06-25T19:15:02.795Z,17.4
2018-06-25T19:30:03.221Z,17.1
2018-06-25T19:45:02.532Z,16.9
2018-06-25T20:00:02.857Z,16.8
2018-06-25T20:15:03.203Z,16
2018-06-25T20:30:02.629Z,15.6
2018-06-25T20:45:02.970Z,15.5
2018-06-25T21:00:02.253Z,15.4
2018-06-25T21:15:02.598Z,15.2
2018-06-25T21:30:02.983Z,15.2
2018-06-25T21:45:02.273Z,15.1
2018-06-25T22:00:02.647Z,15
2018-06-25T22:15:02.967Z,14.9
2018-06-25T22:30:02.410Z,14.9
2018-06-25T22:45:02.702Z,14.9
2018-06-25T23:00:03.032Z,14.8
2018-06-25T23:15:02.360Z,15.1
2018-06-25T23:30:02.744Z,14.9
2018-06-25T23:45:03.077Z,14.8
